METAR Data
IDs: Format: Raw Decoded Include TAF

Data at: 0201 UTC 12 May 2021

KMZZ 120155Z AUTO 35005KT 10SM CLR 08/00 A3036 RMK AO2 T00780003
KMZZ 120135Z AUTO 35005KT 10SM CLR 08/00 A3035 RMK AO2 T00810004
KMZZ 120115Z AUTO 35005KT 10SM CLR 09/00 A3034 RMK AO2 T00860002
KMZZ 120055Z AUTO 35006KT 10SM CLR 09/00 A3033 RMK AO2 T00890002
KMZZ 120035Z AUTO 35007KT 10SM CLR 09/00 A3032 RMK AO2 T00940002
KMZZ 120015Z AUTO 35009KT 10SM CLR 10/00 A3032 RMK AO2 T00991002
KMZZ 112355Z AUTO 34008KT 10SM CLR 10/00 A3031 RMK AO2 T01021001 10282 21235
KMZZ 112335Z AUTO 36007KT 10SM CLR 11/00 A3030 RMK AO2 T01051005
KMZZ 112315Z AUTO 36009KT 10SM CLR 11/00 A3030 RMK AO2 T01090000
KMZZ 112255Z AUTO 34009G14KT 300V360 7SM CLR 11/00 A3029 RMK AO2 T01130000
KMZZ 112235Z AUTO 34008KT 10SM CLR 11/00 A3029 RMK AO2 T01140001
KMZZ 112215Z AUTO 01008G15KT 10SM CLR 11/00 A3029 RMK AO2 T01130000
KMZZ 112155Z AUTO 34010KT 10SM SCT060 12/00 A3029 RMK AO2 T01150001
KMZZ 112135Z AUTO 36009KT 10SM CLR 12/00 A3028 RMK AO2 T01161001
KMZZ 112115Z AUTO 35009KT 10SM CLR 12/01 A3028 RMK AO2 T01180007
KMZZ 112055Z AUTO 34008G14KT 10SM SCT060 12/00 A3028 RMK AO2 T01180003
KMZZ 112035Z AUTO 36010KT 10SM SCT060 12/01 A3028 RMK AO2 T01160008
KMZZ 112015Z AUTO 36012KT 10SM SCT060 11/01 A3029 RMK AO2 T01130011
KMZZ 111955Z AUTO 36005KT 10SM SCT060 11/01 A3029 RMK AO2 T01140011
KMZZ 111935Z AUTO 36012G16KT 10SM SCT060 11/01 A3029 RMK AO2 T01130010
KMZZ 111915Z AUTO 35012G17KT 10SM SCT050 11/01 A3030 RMK AO2 T01130012
KMZZ 111900Z AUTO 34007KT 10SM BKN050 11/02 A3030 RMK AO2 T01120018
KMZZ 111835Z AUTO 36011G16KT 10SM SCT050 11/02 A3031 RMK AO2 T01090019
KMZZ 111815Z AUTO 35010G18KT 10SM BKN050 11/03 A3031 RMK AO2 T01100026
KMZZ 111755Z AUTO 35009G14KT 10SM BKN050 11/01 A3032 RMK AO2 T01070012 10282 21235
KMZZ 111735Z AUTO 36007KT 310V010 10SM BKN050 11/02 A3033 RMK AO2 T01060016
KMZZ 111715Z AUTO 02014KT 10SM BKN050 BKN060 11/01 A3033 RMK AO2 T01050012
KMZZ 111655Z AUTO 34007G14KT 10SM BKN050 10/01 A3033 RMK AO2 T01000014
KMZZ 111635Z AUTO 01015G19KT 10SM SCT046 SCT050 10/02 A3032 RMK AO2 T01000016
KMZZ 111615Z AUTO 02012G16KT 10SM SCT044 10/02 A3032 RMK AO2 T00980017
KMZZ 111555Z AUTO 36008G14KT 10SM CLR 09/01 A3032 RMK AO2 T00940011
KMZZ 111535Z AUTO 02009G15KT 10SM CLR 09/01 A3033 RMK AO2 T00930009
KMZZ 111515Z AUTO 01012KT 10SM CLR 09/01 A3033 RMK AO2 T00910011
KMZZ 111455Z AUTO 01005KT 10SM CLR 08/01 A3033 RMK AO2 T00840008
KMZZ 111435Z AUTO 01008KT 10SM CLR 08/01 A3032 RMK AO2 T00820012
KMZZ 111415Z AUTO 06008KT 10SM SCT110 08/01 A3032 RMK AO2 T00790013
KMZZ 111355Z AUTO 05008KT 10SM BKN100 08/01 A3031 RMK AO2 T00750007
KMZZ 111335Z AUTO 04008KT 10SM BKN110 07/00 A3030 RMK AO2 T00700003
KMZZ 111315Z AUTO 04007KT 10SM SCT110 06/01 A3030 RMK AO2 T00640005
KMZZ 111255Z AUTO 04006KT 10SM SCT110 06/00 A3029 RMK AO2 T00580001
KMZZ 111235Z AUTO 02007KT 10SM BKN110 05/01 A3029 RMK AO2 T00530005
KMZZ 111215Z AUTO 03005KT 7SM OVC110 05/00 A3029 RMK AO2 T00490002
KMZZ 111155Z AUTO 02006KT 10SM OVC110 05/01 A3028 RMK AO2 70111 T00470007 10282 21235
KMZZ 111135Z AUTO 01004KT 10SM OVC120 05/01 A3028 RMK AO2 T00450007
KMZZ 111115Z AUTO 01004KT 10SM SCT085 OVC120 05/01 A3027 RMK AO2 T00460007
KMZZ 111055Z AUTO 36005KT 10SM BKN085 OVC120 05/01 A3026 RMK AO2 T00470010
KMZZ 111035Z AUTO 01003KT 10SM SCT085 OVC110 05/01 A3025 RMK AO2 T00490007
KMZZ 111015Z AUTO 36005KT 10SM SCT085 OVC110 05/00 A3025 RMK AO2 T00510003
KMZZ 110955Z AUTO 36004KT 10SM OVC110 05/00 A3024 RMK AO2 T00510003
KMZZ 110935Z AUTO 01003KT 10SM SCT080 OVC110 05/01 A3023 RMK AO2 T00530010
KMZZ 110915Z AUTO 02005KT 10SM SCT080 OVC120 06/01 A3022 RMK AO2 T00550008
KMZZ 110855Z AUTO 02005KT 10SM BKN120 06/01 A3021 RMK AO2 T00560006
KMZZ 110835Z AUTO 01005KT 10SM SCT090 BKN120 06/01 A3021 RMK AO2 T00580013
KMZZ 110815Z AUTO 01006KT 10SM SCT080 OVC090 06/02 A3021 RMK AO2 T00620016
KMZZ 110755Z AUTO 35004KT 10SM OVC070 07/02 A3021 RMK AO2 T00650024
KMZZ 110735Z AUTO 36005KT 10SM BKN070 OVC090 07/02 A3020 RMK AO2 T00650023
KMZZ 110715Z AUTO 01005KT 10SM BKN070 OVC090 07/03 A3019 RMK AO2 T00680026
KMZZ 110655Z AUTO 36006KT 10SM OVC070 07/03 A3019 RMK AO2 T00720030
KMZZ 110635Z AUTO 36006KT 10SM OVC070 08/04 A3019 RMK AO2 T00750040
KMZZ 110615Z AUTO 36004KT 10SM OVC070 08/05 A3019 RMK AO2 T00760050
KMZZ 110555Z AUTO 01003KT 10SM OVC070 08/06 A3019 RMK AO2 60001 T00770057 10282 21235 402821235
KMZZ 110535Z AUTO 00000KT 7SM OVC070 08/06 A3018 RMK AO2 T00790057
KMZZ 110515Z AUTO 01006KT 10SM OVC070 08/06 A3019 RMK AO2 T00810058
KMZZ 110455Z AUTO 02005KT 10SM BKN070 BKN080 OVC100 08/07 A3018 RMK AO2 T00830066
KMZZ 110435Z AUTO 36005KT 10SM OVC070 09/07 A3018 RMK AO2 T00850071
KMZZ 110415Z AUTO 34004KT 10SM OVC060 09/07 A3019 RMK AO2 T00860073
KMZZ 110355Z AUTO 36004KT 10SM OVC060 09/07 A3018 RMK AO2 T00870071
KMZZ 110335Z AUTO 36004KT 10SM OVC060 09/07 A3018 RMK AO2 T00880072
KMZZ 110315Z AUTO 33003KT 10SM OVC060 09/07 A3018 RMK AO2 T00870073
KMZZ 110255Z AUTO 34003KT 10SM -RA OVC060 09/08 A3018 RMK AO2 P0001 60001 T00880075
KMZZ 110235Z AUTO 33005KT 10SM -RA OVC060 09/07 A3017 RMK AO2 T00890072
KMZZ 110215Z AUTO 35009KT 10SM BKN060 OVC075 09/07 A3016 RMK AO2 T00880073
KMZZ 110155Z AUTO 01007KT 10SM SCT060 OVC070 09/07 A3015 RMK AO2 T00890074
KMZZ 110135Z AUTO 36006KT 10SM -RA SCT047 BKN060 OVC070 09/08 A3015 RMK AO2 T00910076
KMZZ 110115Z AUTO 36005KT 10SM BKN046 BKN055 OVC070 09/08 A3015 RMK AO2 T00940078
KMZZ 110055Z AUTO 35007KT 7SM -RA BKN046 BKN050 OVC060 10/07 A3015 RMK AO2 T00960074
KMZZ 110035Z AUTO 35008KT 10SM -RA SCT048 OVC060 10/07 A3014 RMK AO2 T01010070
KMZZ 110015Z AUTO 35007KT 10SM BKN048 BKN055 OVC080 11/07 A3014 RMK AO2 T01050073
KMZZ 102355Z AUTO 35006KT 7SM SCT050 SCT065 OVC080 11/07 A3014 RMK AO2 T01090071 10282 21235
KMZZ 102335Z AUTO 34009KT 10SM SCT050 BKN075 OVC090 13/05 A3013 RMK AO2 T01270053
KMZZ 102315Z AUTO 00000KT 10SM OVC100 13/05 A3012 RMK AO2 T01310046
KMZZ 102255Z AUTO 31003KT 10SM BKN110 13/05 A3012 RMK AO2 T01320049
KMZZ 102235Z AUTO 00000KT 7SM CLR 14/05 A3011 RMK AO2 T01350045
KMZZ 102215Z AUTO 00000KT 10SM CLR 14/05 A3012 RMK AO2 T01350046
KMZZ 102155Z AUTO 00000KT 10SM CLR 13/05 A3012 RMK AO2 T01340047
KMZZ 102135Z AUTO 00000KT 10SM CLR 13/04 A3012 RMK AO2 T01340044
KMZZ 102115Z AUTO 36004KT 10SM SCT085 14/05 A3013 RMK AO2 T01360054
KMZZ 102055Z AUTO 00000KT 7SM OVC085 13/05 A3012 RMK AO2 T01300049
KMZZ 102035Z AUTO 00000KT 10SM SCT075 BKN085 OVC100 13/05 A3013 RMK AO2 T01280053
KMZZ 102010Z AUTO 30006KT 10SM SCT045 SCT060 OVC080 13/05 A3014 RMK AO2 T01300049
KMZZ 101955Z AUTO 30007KT 10SM SCT044 SCT050 OVC065 13/05 A3014 RMK AO2 T01300051
KMZZ 101935Z AUTO 32008KT 10SM SCT046 OVC060 13/05 A3014 RMK AO2 T01340051
KMZZ 101915Z AUTO 30011G14KT 10SM SCT046 BKN070 OVC100 14/05 A3014 RMK AO2 T01400048
KMZZ 101855Z AUTO 30006KT 10SM SCT046 SCT070 BKN100 14/05 A3014 RMK AO2 T01390051
KMZZ 101835Z AUTO 29008KT 10SM SCT100 14/06 A3014 RMK AO2 T01370059
KMZZ 101815Z AUTO 29012KT 250V310 10SM SCT075 14/06 A3014 RMK AO2 T01360056
KMZZ 101800Z AUTO 29010G16KT SCT038 BKN075 14/06 A3014 RMK AO2 T01360062 PWINO
KMZZ 101710Z AUTO 26008KT 240V300 10SM SCT075 BKN120 13/06 A3014 RMK AO2 T01270061
KMZZ 101655Z AUTO 27008KT 7SM OVC120 12/06 A3015 RMK AO2 T01240059
KMZZ 101635Z AUTO 28008KT 10SM SCT032 BKN120 12/06 A3015 RMK AO2 T01200058
KMZZ 101615Z AUTO 29009KT 10SM SCT032 SCT110 12/07 A3016 RMK AO2 T01180065
KMZZ 101555Z AUTO 28009KT 10SM SCT110 11/06 A3015 RMK AO2 T01140063
KMZZ 101535Z AUTO 26010KT 10SM SCT110 11/06 A3014 RMK AO2 T01090056
KMZZ 101515Z AUTO 26006KT 10SM SCT110 11/06 A3014 RMK AO2 T01060060
KMZZ 101455Z AUTO 27007KT 10SM CLR 10/06 A3014 RMK AO2 T01010057
KMZZ 101435Z AUTO 27006KT 10SM CLR 10/06 A3013 RMK AO2 T00950055
KMZZ 101415Z AUTO 28008KT 10SM CLR 09/06 A3014 RMK AO2 T00890057